createdAt,value
2017-02-06T00:00:07.513Z,942.58
2017-02-06T00:01:08.048Z,942.61
2017-02-06T00:02:07.666Z,942.60
2017-02-06T00:03:08.217Z,942.62
2017-02-06T00:04:07.854Z,942.66
2017-02-06T00:05:07.374Z,942.71
2017-02-06T00:06:08.268Z,942.74
2017-02-06T00:07:07.808Z,942.71
2017-02-06T00:08:07.273Z,942.68
2017-02-06T00:09:07.910Z,942.70
2017-02-06T00:10:07.496Z,942.68
2017-02-06T00:11:08.031Z,942.74
2017-02-06T00:12:07.687Z,942.78
2017-02-06T00:13:08.219Z,942.81
2017-02-06T00:14:07.806Z,942.83
2017-02-06T00:15:07.329Z,942.84
2017-02-06T00:16:07.903Z,942.81
2017-02-06T00:17:07.815Z,942.79
2017-02-06T00:18:17.264Z,942.81
2017-02-06T00:19:07.804Z,942.80
2017-02-06T00:20:07.470Z,942.82
2017-02-06T00:21:08.289Z,942.80
2017-02-06T00:22:07.957Z,942.85
2017-02-06T00:23:07.417Z,942.87
2017-02-06T00:24:07.900Z,942.84
2017-02-06T00:25:07.359Z,942.88
2017-02-06T00:26:07.839Z,942.90
2017-02-06T00:27:07.334Z,942.85
2017-02-06T00:28:07.832Z,942.91
2017-02-06T00:29:07.332Z,942.85
2017-02-06T00:30:07.893Z,942.86
2017-02-06T00:31:07.751Z,942.82
2017-02-06T00:32:08.306Z,942.82
2017-02-06T00:33:07.867Z,942.87
2017-02-06T00:34:07.584Z,942.89
2017-02-06T00:35:08.241Z,942.94
2017-02-06T00:36:07.822Z,942.93
2017-02-06T00:37:07.386Z,942.95
2017-02-06T00:38:07.988Z,942.99
2017-02-06T00:39:07.497Z,943.00
2017-02-06T00:40:08.069Z,943.00
2017-02-06T00:41:07.786Z,943.05
2017-02-06T00:42:07.302Z,943.03
2017-02-06T00:43:07.856Z,943.03
2017-02-06T00:44:07.351Z,943.12
2017-02-06T00:45:07.835Z,943.14
2017-02-06T00:46:07.324Z,943.12
2017-02-06T00:47:08.179Z,943.19
2017-02-06T00:48:07.912Z,943.17
2017-02-06T00:49:07.489Z,943.18
2017-02-06T00:50:08.085Z,943.18
2017-02-06T00:51:07.917Z,943.13
2017-02-06T00:52:07.375Z,943.15
2017-02-06T00:53:07.951Z,943.17
2017-02-06T00:54:07.798Z,943.19
2017-02-06T00:55:07.606Z,943.19
2017-02-06T00:56:08.191Z,943.19
2017-02-06T00:57:07.732Z,943.20
2017-02-06T00:58:08.264Z,943.21
2017-02-06T00:59:07.966Z,943.24
2017-02-06T01:00:07.456Z,943.26
2017-02-06T01:01:08.007Z,943.31
2017-02-06T01:02:07.746Z,943.37
2017-02-06T01:03:08.321Z,943.40
2017-02-06T01:04:07.880Z,943.43
2017-02-06T01:05:07.360Z,943.42
2017-02-06T01:06:07.917Z,943.41
2017-02-06T01:07:07.488Z,943.46
2017-02-06T01:08:08.124Z,943.50
2017-02-06T01:09:07.640Z,943.51
2017-02-06T01:10:08.210Z,943.56
2017-02-06T01:11:07.701Z,943.56
2017-02-06T01:12:08.346Z,943.59
2017-02-06T01:13:08.179Z,943.62
2017-02-06T01:14:07.717Z,943.67
2017-02-06T01:15:08.247Z,943.65
2017-02-06T01:16:08.013Z,943.64
2017-02-06T01:17:07.784Z,943.65
2017-02-06T01:18:07.275Z,943.69
2017-02-06T01:19:07.812Z,943.68
2017-02-06T01:20:07.354Z,943.75
2017-02-06T01:21:07.927Z,943.72
2017-02-06T01:22:07.556Z,943.72
2017-02-06T01:23:08.349Z,943.74
2017-02-06T01:24:07.839Z,943.70
2017-02-06T01:25:07.484Z,943.76
2017-02-06T01:26:08.026Z,943.80
2017-02-06T01:27:07.598Z,943.80
2017-02-06T01:28:08.124Z,943.79
2017-02-06T01:29:07.664Z,943.84
2017-02-06T01:30:08.225Z,943.80
2017-02-06T01:31:07.831Z,943.82
2017-02-06T01:32:07.544Z,943.83
2017-02-06T01:33:08.096Z,943.86
2017-02-06T01:34:07.783Z,943.86
2017-02-06T01:35:07.281Z,943.85
2017-02-06T01:36:07.841Z,943.87
2017-02-06T01:37:07.386Z,943.84
2017-02-06T01:38:08.026Z,943.81
2017-02-06T01:39:07.657Z,943.83
2017-02-06T01:40:08.402Z,943.83
2017-02-06T01:41:07.984Z,943.91
2017-02-06T01:42:07.504Z,943.89
2017-02-06T01:43:08.048Z,943.92
2017-02-06T01:44:07.746Z,943.92
2017-02-06T01:45:08.241Z,943.94
2017-02-06T01:46:07.725Z,943.92
2017-02-06T01:47:08.524Z,943.94
2017-02-06T01:48:08.052Z,943.92
2017-02-06T01:49:07.595Z,943.90
2017-02-06T01:50:08.082Z,943.95
2017-02-06T01:51:07.985Z,943.98
2017-02-06T01:52:07.568Z,943.96
2017-02-06T01:53:08.191Z,943.96
2017-02-06T01:54:07.977Z,943.99
2017-02-06T01:55:07.488Z,943.97
2017-02-06T01:56:08.006Z,943.96
2017-02-06T01:57:07.726Z,943.93
2017-02-06T01:58:08.239Z,943.97
2017-02-06T01:59:07.771Z,943.99
2017-02-06T02:00:07.304Z,943.96
2017-02-06T02:01:07.775Z,944.03
2017-02-06T02:02:07.638Z,944.05
2017-02-06T02:03:08.159Z,944.03
2017-02-06T02:04:08.014Z,944.00
2017-02-06T02:05:07.574Z,944.03
2017-02-06T02:06:08.124Z,944.03
2017-02-06T02:07:07.712Z,944.07
2017-02-06T02:08:08.203Z,944.00
2017-02-06T02:09:07.720Z,944.06
2017-02-06T02:10:08.215Z,944.07
2017-02-06T02:11:07.797Z,944.05
2017-02-06T02:12:07.304Z,944.14
2017-02-06T02:13:08.085Z,944.10
2017-02-06T02:14:07.640Z,944.10
2017-02-06T02:15:08.147Z,944.08
2017-02-06T02:16:07.637Z,944.15
2017-02-06T02:17:08.212Z,944.18
2017-02-06T02:18:07.348Z,944.20
2017-02-06T02:19:08.288Z,944.26
2017-02-06T02:20:07.778Z,944.29
2017-02-06T02:21:07.287Z,944.30
2017-02-06T02:22:07.757Z,944.32
2017-02-06T02:23:07.290Z,944.33
2017-02-06T02:24:07.784Z,944.33
2017-02-06T02:25:07.314Z,944.28
2017-02-06T02:26:07.889Z,944.34
2017-02-06T02:27:07.656Z,944.35
2017-02-06T02:28:08.248Z,944.37
2017-02-06T02:29:07.742Z,944.36
2017-02-06T02:30:08.366Z,944.40
2017-02-06T02:31:07.859Z,944.39
2017-02-06T02:32:07.324Z,944.43
2017-02-06T02:33:07.843Z,944.50
2017-02-06T02:34:07.347Z,944.47
2017-02-06T02:35:07.866Z,944.45
2017-02-06T02:36:07.592Z,944.50
2017-02-06T02:37:08.364Z,944.47
2017-02-06T02:38:07.938Z,944.48
2017-02-06T02:39:07.575Z,944.49
2017-02-06T02:40:08.108Z,944.51
2017-02-06T02:41:07.781Z,944.56
2017-02-06T02:42:07.320Z,944.54
2017-02-06T02:43:07.901Z,944.52
2017-02-06T02:44:07.383Z,944.55
2017-02-06T02:45:08.028Z,944.58
2017-02-06T02:46:07.575Z,944.52
2017-02-06T02:47:08.196Z,944.55
2017-02-06T02:48:08.644Z,944.51
2017-02-06T02:49:08.414Z,944.53
2017-02-06T02:50:07.961Z,944.53
2017-02-06T02:51:07.508Z,944.50
2017-02-06T02:52:08.086Z,944.53
2017-02-06T02:53:07.582Z,944.51
2017-02-06T02:54:08.157Z,944.54
2017-02-06T02:55:07.668Z,944.58
2017-02-06T02:56:08.344Z,944.58
2017-02-06T02:57:08.009Z,944.62
2017-02-06T02:58:07.457Z,944.58
2017-02-06T02:59:08.034Z,944.61
2017-02-06T03:00:07.555Z,944.65
2017-02-06T03:01:08.298Z,944.68
2017-02-06T03:02:07.856Z,944.72
2017-02-06T03:03:07.330Z,944.73
2017-02-06T03:04:08.014Z,944.73
2017-02-06T03:05:07.628Z,944.78
2017-02-06T03:06:08.255Z,944.72
2017-02-06T03:07:07.692Z,944.76
2017-02-06T03:08:07.896Z,944.79
2017-02-06T03:09:07.367Z,944.82
2017-02-06T03:10:08.165Z,944.84
2017-02-06T03:11:07.692Z,944.88
2017-02-06T03:12:08.177Z,944.89
2017-02-06T03:13:07.733Z,944.90
2017-02-06T03:14:08.203Z,944.98
2017-02-06T03:15:07.720Z,944.95
2017-02-06T03:16:08.206Z,944.97
2017-02-06T03:17:08.017Z,944.99
2017-02-06T03:18:07.607Z,945.00
2017-02-06T03:19:08.148Z,945.04
2017-02-06T03:20:07.840Z,945.06
2017-02-06T03:21:07.387Z,945.02
2017-02-06T03:22:07.908Z,945.04
2017-02-06T03:23:07.571Z,945.10
2017-02-06T03:24:08.055Z,945.13
2017-02-06T03:25:07.590Z,945.17
2017-02-06T03:26:08.184Z,945.13
2017-02-06T03:27:07.747Z,945.18
2017-02-06T03:28:08.402Z,945.17
2017-02-06T03:29:08.287Z,945.14
2017-02-06T03:30:07.828Z,945.19
2017-02-06T03:31:07.418Z,945.20
2017-02-06T03:32:08.071Z,945.26
2017-02-06T03:33:07.538Z,945.25
2017-02-06T03:34:08.346Z,945.33
2017-02-06T03:35:07.867Z,945.31
2017-02-06T03:36:07.396Z,945.35
2017-02-06T03:37:07.927Z,945.36
2017-02-06T03:38:07.462Z,945.38
2017-02-06T03:39:08.003Z,945.37
2017-02-06T03:40:07.767Z,945.38
2017-02-06T03:41:07.420Z,945.39
2017-02-06T03:42:07.897Z,945.39
2017-02-06T03:43:07.908Z,945.38
2017-02-06T03:44:07.518Z,945.40
2017-02-06T03:45:08.028Z,945.41
2017-02-06T03:46:07.809Z,945.43
2017-02-06T03:47:07.487Z,945.43
2017-02-06T03:48:08.049Z,945.49
2017-02-06T03:49:07.547Z,945.57
2017-02-06T03:50:08.065Z,945.55
2017-02-06T03:51:07.599Z,945.57
2017-02-06T03:52:08.129Z,945.57
2017-02-06T03:53:07.740Z,945.62
2017-02-06T03:54:08.293Z,945.53
2017-02-06T03:55:07.874Z,945.57
2017-02-06T03:56:07.400Z,945.60
2017-02-06T03:57:08.098Z,945.61
2017-02-06T03:58:07.587Z,945.59
2017-02-06T03:59:08.142Z,945.63
2017-02-06T04:00:07.674Z,945.72
2017-02-06T04:01:08.259Z,945.64
2017-02-06T04:02:07.866Z,945.67
2017-02-06T04:03:07.496Z,945.67
2017-02-06T04:04:08.073Z,945.72
2017-02-06T04:05:07.558Z,945.75
2017-02-06T04:06:08.188Z,945.72
2017-02-06T04:07:08.204Z,945.73
2017-02-06T04:08:07.653Z,945.79
2017-02-06T04:09:08.137Z,945.78
2017-02-06T04:10:07.959Z,945.84
2017-02-06T04:11:07.466Z,945.81
2017-02-06T04:12:08.034Z,945.91
2017-02-06T04:13:07.667Z,945.89
2017-02-06T04:14:08.420Z,945.94
2017-02-06T04:15:08.023Z,945.92
2017-02-06T04:16:07.602Z,945.97
2017-02-06T04:17:08.432Z,945.95
2017-02-06T04:18:08.191Z,945.89
2017-02-06T04:19:07.655Z,945.98
2017-02-06T04:20:08.242Z,945.89
2017-02-06T04:21:07.810Z,945.94
2017-02-06T04:22:07.257Z,945.95
2017-02-06T04:23:07.930Z,946.03
2017-02-06T04:24:07.777Z,946.03
2017-02-06T04:25:07.247Z,946.07
2017-02-06T04:26:07.870Z,946.12
2017-02-06T04:27:07.397Z,946.16
2017-02-06T04:28:07.936Z,946.12
2017-02-06T04:29:07.389Z,946.20
2017-02-06T04:30:07.942Z,946.23
2017-02-06T04:31:07.420Z,946.24
2017-02-06T04:32:08.011Z,946.22
2017-02-06T04:33:07.564Z,946.22
2017-02-06T04:34:08.313Z,946.22
2017-02-06T04:35:07.871Z,946.22
2017-02-06T04:36:07.450Z,946.28
2017-02-06T04:37:08.098Z,946.26
2017-02-06T04:38:07.626Z,946.28
2017-02-06T04:39:08.178Z,946.32
2017-02-06T04:40:07.666Z,946.33
2017-02-06T04:41:08.349Z,946.32
2017-02-06T04:42:07.795Z,946.37
2017-02-06T04:43:07.351Z,946.38
2017-02-06T04:44:07.813Z,946.40
2017-02-06T04:45:07.324Z,946.40
2017-02-06T04:46:07.916Z,946.44
2017-02-06T04:47:07.537Z,946.41
2017-02-06T04:48:08.096Z,946.44
2017-02-06T04:49:07.669Z,946.46
2017-02-06T04:50:08.137Z,946.49
2017-02-06T04:51:07.680Z,946.48
2017-02-06T04:52:08.264Z,946.52
2017-02-06T04:53:07.930Z,946.54
2017-02-06T04:54:07.511Z,946.54
2017-02-06T04:55:08.048Z,946.57
2017-02-06T04:56:07.619Z,946.61
2017-02-06T04:57:08.175Z,946.64
2017-02-06T04:58:07.806Z,946.65
2017-02-06T04:59:07.309Z,946.75
2017-02-06T05:00:08.111Z,946.76
2017-02-06T05:01:07.599Z,946.76
2017-02-06T05:02:08.225Z,946.74
2017-02-06T05:03:07.776Z,946.79
2017-02-06T05:04:07.366Z,946.82
2017-02-06T05:05:07.941Z,946.84
2017-02-06T05:06:07.504Z,946.86
2017-02-06T05:07:08.248Z,946.91
2017-02-06T05:08:07.799Z,946.88
2017-02-06T05:09:07.350Z,946.91
2017-02-06T05:10:08.095Z,946.93
2017-02-06T05:11:07.878Z,946.99
2017-02-06T05:12:07.338Z,946.93
2017-02-06T05:13:08.052Z,947.00
2017-02-06T05:14:07.600Z,947.02
2017-02-06T05:15:08.361Z,946.99
2017-02-06T05:16:08.167Z,947.06
2017-02-06T05:17:07.940Z,947.05
2017-02-06T05:18:07.482Z,947.05
2017-02-06T05:19:08.027Z,947.09
2017-02-06T05:20:07.759Z,947.14
2017-02-06T05:21:07.368Z,947.13
2017-02-06T05:22:07.872Z,947.17
2017-02-06T05:23:07.431Z,947.19
2017-02-06T05:24:07.888Z,947.15
2017-02-06T05:25:10.290Z,947.22
2017-02-06T05:26:07.343Z,947.26
2017-02-06T05:27:07.799Z,947.30
2017-02-06T05:28:07.340Z,947.33
2017-02-06T05:29:07.812Z,947.34
2017-02-06T05:30:07.581Z,947.38
2017-02-06T05:31:08.322Z,947.41
2017-02-06T05:32:07.815Z,947.42
2017-02-06T05:33:07.354Z,947.43
2017-02-06T05:34:08.042Z,947.48
2017-02-06T05:35:07.529Z,947.50
2017-02-06T05:36:08.089Z,947.53
2017-02-06T05:37:07.837Z,947.56
2017-02-06T05:38:07.498Z,947.60
2017-02-06T05:39:08.080Z,947.57
2017-02-06T05:40:07.667Z,947.58
2017-02-06T05:41:08.211Z,947.57
2017-02-06T05:42:07.675Z,947.61
2017-02-06T05:43:08.253Z,947.61
2017-02-06T05:44:07.815Z,947.63
2017-02-06T05:45:07.300Z,947.68
2017-02-06T05:46:07.895Z,947.64
2017-02-06T05:47:07.547Z,947.63
2017-02-06T05:48:08.692Z,947.69
2017-02-06T05:49:08.401Z,947.65
2017-02-06T05:50:08.114Z,947.71
2017-02-06T05:51:07.717Z,947.72
2017-02-06T05:52:08.280Z,947.74
2017-02-06T05:53:07.881Z,947.74
2017-02-06T05:54:07.629Z,947.77
2017-02-06T05:55:08.204Z,947.77
2017-02-06T05:56:07.717Z,947.82
2017-02-06T05:57:08.210Z,947.88
2017-02-06T05:58:07.707Z,947.86
2017-02-06T05:59:08.322Z,947.89
2017-02-06T06:00:07.975Z,947.85
2017-02-06T06:01:07.506Z,947.91
2017-02-06T06:02:08.043Z,947.92
2017-02-06T06:03:08.258Z,947.95
2017-02-06T06:04:07.821Z,947.94
2017-02-06T06:05:07.401Z,947.92
2017-02-06T06:06:08.082Z,947.92
2017-02-06T06:07:07.601Z,947.96
2017-02-06T06:08:08.079Z,947.99
2017-02-06T06:09:07.664Z,948.04
2017-02-06T06:10:08.257Z,948.07
2017-02-06T06:11:07.866Z,948.13
2017-02-06T06:12:07.489Z,948.13
2017-02-06T06:13:08.012Z,948.11
2017-02-06T06:14:07.519Z,948.13
2017-02-06T06:15:08.012Z,948.14
2017-02-06T06:16:07.837Z,948.21
2017-02-06T06:17:07.614Z,948.16
2017-02-06T06:18:08.210Z,948.18
2017-02-06T06:19:07.787Z,948.22
2017-02-06T06:20:07.409Z,948.21
2017-02-06T06:21:08.108Z,948.20
2017-02-06T06:22:07.649Z,948.26
2017-02-06T06:23:08.233Z,948.27
2017-02-06T06:24:07.781Z,948.29
2017-02-06T06:25:07.310Z,948.33
2017-02-06T06:26:07.946Z,948.30
2017-02-06T06:27:07.476Z,948.31
2017-02-06T06:28:08.017Z,948.29
2017-02-06T06:29:07.915Z,948.39
2017-02-06T06:30:07.697Z,948.38
2017-02-06T06:31:08.316Z,948.37
2017-02-06T06:32:07.965Z,948.42
2017-02-06T06:33:07.603Z,948.44
2017-02-06T06:34:08.252Z,948.45
2017-02-06T06:35:07.859Z,948.43
2017-02-06T06:36:07.386Z,948.46
2017-02-06T06:37:08.153Z,948.49
2017-02-06T06:38:07.661Z,948.48
2017-02-06T06:39:08.293Z,948.49
2017-02-06T06:40:07.925Z,948.49
2017-02-06T06:41:07.689Z,948.53
2017-02-06T06:42:08.369Z,948.56
2017-02-06T06:43:08.001Z,948.61
2017-02-06T06:44:07.504Z,948.63
2017-02-06T06:45:08.182Z,948.65
2017-02-06T06:46:07.643Z,948.69
2017-02-06T06:47:08.315Z,948.73
2017-02-06T06:48:07.831Z,948.72
2017-02-06T06:49:07.324Z,948.80
2017-02-06T06:50:08.190Z,948.76
2017-02-06T06:51:08.696Z,948.71
2017-02-06T06:52:08.228Z,948.73
2017-02-06T06:53:08.048Z,948.77
2017-02-06T06:54:07.554Z,948.79
2017-02-06T06:55:09.037Z,948.81
2017-02-06T06:56:07.989Z,948.81
2017-02-06T06:57:07.499Z,948.82
2017-02-06T06:58:08.033Z,948.88
2017-02-06T06:59:07.606Z,948.91
2017-02-06T07:00:08.241Z,948.89
2017-02-06T07:01:07.783Z,948.93
2017-02-06T07:02:07.382Z,948.93
2017-02-06T07:03:07.982Z,949.00
2017-02-06T07:04:07.460Z,948.94
2017-02-06T07:05:08.042Z,948.98
2017-02-06T07:06:07.586Z,949.04
2017-02-06T07:07:08.193Z,949.03
2017-02-06T07:08:07.946Z,949.07
2017-02-06T07:09:07.480Z,949.11
2017-02-06T07:10:08.005Z,949.14
2017-02-06T07:11:07.739Z,949.15
2017-02-06T07:12:08.294Z,949.14
2017-02-06T07:13:07.835Z,949.19
2017-02-06T07:14:07.481Z,949.22
2017-02-06T07:15:07.994Z,949.22
2017-02-06T07:16:07.498Z,949.25
2017-02-06T07:17:08.136Z,949.26
2017-02-06T07:18:07.773Z,949.27
2017-02-06T07:19:07.536Z,949.31
2017-02-06T07:20:08.063Z,949.28
2017-02-06T07:21:07.629Z,949.30
2017-02-06T07:22:08.270Z,949.33
2017-02-06T07:23:07.986Z,949.33
2017-02-06T07:24:07.464Z,949.30
2017-02-06T07:25:07.582Z,949.37
2017-02-06T07:26:08.183Z,949.35
2017-02-06T07:27:07.783Z,949.33
2017-02-06T07:28:26.407Z,949.38
2017-02-06T07:29:07.997Z,949.41
2017-02-06T07:30:07.667Z,949.43
2017-02-06T07:31:08.116Z,949.41
2017-02-06T07:32:07.738Z,949.44
2017-02-06T07:33:08.347Z,949.41
2017-02-06T07:34:07.967Z,949.41
2017-02-06T07:35:07.520Z,949.43
2017-02-06T07:36:08.042Z,949.41
2017-02-06T07:37:07.810Z,949.42
2017-02-06T07:38:07.395Z,949.45
2017-02-06T07:39:08.117Z,949.47
2017-02-06T07:40:07.868Z,949.53
2017-02-06T07:41:07.364Z,949.50
2017-02-06T07:42:07.906Z,949.53
2017-02-06T07:43:07.392Z,949.53
2017-02-06T07:44:07.971Z,949.61
2017-02-06T07:45:07.428Z,949.62
2017-02-06T07:46:07.794Z,949.64
2017-02-06T07:47:07.328Z,949.64
2017-02-06T07:48:07.848Z,949.64
2017-02-06T07:49:07.379Z,949.69
2017-02-06T07:50:07.859Z,949.69
2017-02-06T07:51:07.430Z,949.76
2017-02-06T07:52:07.975Z,949.70
2017-02-06T07:53:08.096Z,949.80
2017-02-06T07:54:07.654Z,949.78
2017-02-06T07:55:08.196Z,949.79
2017-02-06T07:56:07.858Z,949.79
2017-02-06T07:57:07.372Z,949.82
2017-02-06T07:58:07.980Z,949.85
2017-02-06T07:59:08.321Z,949.83
2017-02-06T08:00:08.005Z,949.89
2017-02-06T08:01:07.522Z,949.96
2017-02-06T08:02:08.026Z,949.95
2017-02-06T08:03:07.543Z,949.93
2017-02-06T08:04:08.034Z,949.97
2017-02-06T08:05:07.651Z,950.00
2017-02-06T08:06:08.203Z,949.94
2017-02-06T08:07:07.776Z,950.00
2017-02-06T08:08:07.341Z,949.98
2017-02-06T08:09:07.984Z,950.03
2017-02-06T08:10:07.484Z,950.01
2017-02-06T08:11:08.085Z,950.07
2017-02-06T08:12:07.565Z,950.09
2017-02-06T08:13:08.103Z,950.11
2017-02-06T08:14:07.615Z,950.14
2017-02-06T08:15:08.162Z,950.17
2017-02-06T08:16:07.643Z,950.19
2017-02-06T08:17:08.428Z,950.18
2017-02-06T08:18:07.977Z,950.16
2017-02-06T08:19:07.511Z,950.17
2017-02-06T08:20:08.137Z,950.18
2017-02-06T08:21:07.689Z,950.19
2017-02-06T08:22:08.244Z,950.18
2017-02-06T08:23:08.014Z,950.20
2017-02-06T08:24:07.575Z,950.23
2017-02-06T08:25:08.276Z,950.25
2017-02-06T08:26:07.785Z,950.28
2017-02-06T08:27:07.383Z,950.31
2017-02-06T08:28:07.892Z,950.38
2017-02-06T08:29:07.399Z,950.32
2017-02-06T08:30:07.903Z,950.35
2017-02-06T08:31:07.429Z,950.36
2017-02-06T08:32:07.938Z,950.40
2017-02-06T08:33:07.777Z,950.36
2017-02-06T08:34:07.316Z,950.38
2017-02-06T08:35:07.906Z,950.43
2017-02-06T08:36:07.429Z,950.43
2017-02-06T08:37:08.003Z,950.50
2017-02-06T08:38:07.594Z,950.49
2017-02-06T08:39:08.236Z,950.51
2017-02-06T08:40:07.755Z,950.53
2017-02-06T08:41:08.561Z,950.52
2017-02-06T08:42:08.517Z,950.51
2017-02-06T08:43:08.206Z,950.53
2017-02-06T08:44:08.088Z,950.54
2017-02-06T08:45:07.596Z,950.57
2017-02-06T08:46:08.372Z,950.53
2017-02-06T08:47:07.911Z,950.57
2017-02-06T08:48:07.521Z,950.54
2017-02-06T08:49:08.241Z,950.58
2017-02-06T08:50:07.737Z,950.56
2017-02-06T08:51:08.392Z,950.57
2017-02-06T08:52:08.090Z,950.64
2017-02-06T08:53:07.771Z,950.58
2017-02-06T08:54:07.282Z,950.63
2017-02-06T08:55:07.770Z,950.60
2017-02-06T08:56:07.565Z,950.67
2017-02-06T08:57:08.130Z,950.61
2017-02-06T08:58:07.694Z,950.63
2017-02-06T08:59:08.408Z,950.65
2017-02-06T09:00:08.006Z,950.61
2017-02-06T09:01:07.854Z,950.67
2017-02-06T09:02:07.642Z,950.63
2017-02-06T09:03:08.195Z,950.63
2017-02-06T09:04:08.163Z,950.64
2017-02-06T09:05:07.738Z,950.69
2017-02-06T09:06:08.248Z,950.72
2017-02-06T09:07:07.800Z,950.76
2017-02-06T09:08:07.379Z,950.81
2017-02-06T09:09:07.971Z,950.85
2017-02-06T09:10:07.461Z,950.90
2017-02-06T09:11:08.000Z,950.92
2017-02-06T09:12:07.719Z,950.96
2017-02-06T09:13:08.453Z,950.99
2017-02-06T09:14:08.049Z,951.03
2017-02-06T09:15:08.065Z,951.04
2017-02-06T09:16:07.704Z,951.02
2017-02-06T09:17:08.393Z,951.07
2017-02-06T09:18:07.939Z,951.11
2017-02-06T09:19:07.479Z,951.12
2017-02-06T09:20:08.934Z,951.08
2017-02-06T09:21:27.081Z,951.12
2017-02-06T09:22:08.344Z,951.14
2017-02-06T09:23:08.180Z,951.13
2017-02-06T09:24:07.650Z,951.16
2017-02-06T09:25:08.194Z,951.13
2017-02-06T09:26:07.660Z,951.14
2017-02-06T09:27:08.228Z,951.16
2017-02-06T09:28:07.284Z,951.16
2017-02-06T09:29:07.783Z,951.15
2017-02-06T09:30:07.356Z,951.22
2017-02-06T09:31:07.792Z,951.21
2017-02-06T09:32:07.261Z,951.23
2017-02-06T09:33:07.894Z,951.26
2017-02-06T09:34:07.376Z,951.27
2017-02-06T09:35:07.932Z,951.32
2017-02-06T09:36:07.432Z,951.39
2017-02-06T09:37:07.953Z,951.38
2017-02-06T09:38:07.716Z,951.39
2017-02-06T09:39:08.439Z,951.33
2017-02-06T09:40:08.389Z,951.38
2017-02-06T09:41:08.138Z,951.36
2017-02-06T09:42:07.893Z,951.39
2017-02-06T09:43:07.791Z,951.39
2017-02-06T09:44:27.165Z,951.34
2017-02-06T09:45:08.130Z,951.33
2017-02-06T09:46:07.844Z,951.34
2017-02-06T09:47:07.394Z,951.31
2017-02-06T09:48:08.074Z,951.40
2017-02-06T09:49:07.595Z,951.41
2017-02-06T09:50:08.101Z,951.46
2017-02-06T09:51:07.827Z,951.45
2017-02-06T09:52:07.336Z,951.50
2017-02-06T09:53:08.097Z,951.57
2017-02-06T09:54:07.735Z,951.55
2017-02-06T09:55:08.274Z,951.58
2017-02-06T09:56:07.744Z,951.58
2017-02-06T09:57:08.284Z,951.58
2017-02-06T09:58:07.824Z,951.55
2017-02-06T09:59:07.233Z,951.59
2017-02-06T10:00:07.971Z,951.57
2017-02-06T10:01:07.490Z,951.62
2017-02-06T10:02:07.946Z,951.64
2017-02-06T10:03:07.474Z,951.61
2017-02-06T10:04:07.982Z,951.69
2017-02-06T10:05:07.502Z,951.71
2017-02-06T10:06:07.964Z,951.73
2017-02-06T10:07:07.584Z,951.74
2017-02-06T10:08:08.083Z,951.76
2017-02-06T10:09:07.633Z,951.73
2017-02-06T10:10:08.164Z,951.82
2017-02-06T10:11:26.327Z,951.84
2017-02-06T10:12:08.149Z,951.81
2017-02-06T10:13:08.104Z,951.84
2017-02-06T10:14:07.583Z,951.89
2017-02-06T10:15:08.231Z,951.90
2017-02-06T10:16:07.916Z,951.91
2017-02-06T10:17:07.619Z,951.92
2017-02-06T10:18:08.162Z,951.97
2017-02-06T10:19:07.711Z,951.97
2017-02-06T10:20:08.252Z,951.98
2017-02-06T10:21:07.712Z,951.97
2017-02-06T10:22:08.266Z,951.95
2017-02-06T10:23:07.961Z,951.97
2017-02-06T10:24:07.465Z,951.96
2017-02-06T10:25:08.105Z,952.01
2017-02-06T10:26:07.907Z,952.07
2017-02-06T10:27:07.496Z,952.08
2017-02-06T10:28:08.060Z,952.11
2017-02-06T10:29:07.593Z,952.13
2017-02-06T10:30:08.450Z,952.14
2017-02-06T10:31:07.887Z,952.14
2017-02-06T10:32:07.380Z,952.12
2017-02-06T10:33:07.969Z,952.15
2017-02-06T10:34:07.499Z,952.17
2017-02-06T10:35:07.953Z,952.12
2017-02-06T10:36:07.481Z,952.09
2017-02-06T10:37:07.950Z,952.21
2017-02-06T10:38:07.453Z,952.12
2017-02-06T10:39:08.102Z,952.09
2017-02-06T10:40:08.282Z,952.13
2017-02-06T10:41:07.754Z,952.12
2017-02-06T10:42:08.502Z,952.15
2017-02-06T10:43:08.003Z,952.13
2017-02-06T10:44:07.356Z,952.20
2017-02-06T10:45:08.370Z,952.19
2017-02-06T10:46:07.882Z,952.26
2017-02-06T10:47:07.416Z,952.23
2017-02-06T10:48:07.938Z,952.24
2017-02-06T10:49:07.394Z,952.24
2017-02-06T10:50:07.944Z,952.24
2017-02-06T10:51:07.546Z,952.25
2017-02-06T10:52:15.524Z,952.28
2017-02-06T10:53:08.239Z,952.26
2017-02-06T10:54:07.858Z,952.28
2017-02-06T10:55:07.570Z,952.31
2017-02-06T10:56:08.328Z,952.27
2017-02-06T10:57:08.734Z,952.33
2017-02-06T10:58:08.368Z,952.27
2017-02-06T10:59:07.885Z,952.30
2017-02-06T11:00:07.370Z,952.30
2017-02-06T11:01:08.288Z,952.32
2017-02-06T11:02:07.995Z,952.36
2017-02-06T11:03:07.680Z,952.35
2017-02-06T11:04:08.220Z,952.36
2017-02-06T11:05:07.949Z,952.36
2017-02-06T11:06:07.523Z,952.35
2017-02-06T11:07:08.103Z,952.39
2017-02-06T11:08:07.681Z,952.37
2017-02-06T11:09:08.211Z,952.41
2017-02-06T11:10:07.751Z,952.40
2017-02-06T11:11:08.273Z,952.40
2017-02-06T11:12:08.026Z,952.41
2017-02-06T11:13:07.592Z,952.42
2017-02-06T11:14:08.103Z,952.41
2017-02-06T11:15:07.609Z,952.40
2017-02-06T11:16:08.419Z,952.45
2017-02-06T11:17:08.041Z,952.43
2017-02-06T11:18:07.535Z,952.45
2017-02-06T11:19:08.274Z,952.48
2017-02-06T11:20:07.895Z,952.44
2017-02-06T11:21:07.532Z,952.49
2017-02-06T11:22:08.038Z,952.47
2017-02-06T11:23:07.877Z,952.51
2017-02-06T11:24:07.394Z,952.54
2017-02-06T11:25:08.153Z,952.51
2017-02-06T11:26:07.668Z,952.53
2017-02-06T11:27:08.206Z,952.54
2017-02-06T11:28:07.808Z,952.53
2017-02-06T11:29:07.275Z,952.53
2017-02-06T11:30:07.830Z,952.54
2017-02-06T11:31:07.777Z,952.53
2017-02-06T11:32:07.290Z,952.54
2017-02-06T11:33:07.970Z,952.51
2017-02-06T11:34:07.602Z,952.53
2017-02-06T11:35:08.170Z,952.55
2017-02-06T11:36:07.728Z,952.52
2017-02-06T11:37:08.524Z,952.56
2017-02-06T11:38:08.087Z,952.54
2017-02-06T11:39:07.717Z,952.58
2017-02-06T11:40:08.401Z,952.57
2017-02-06T11:41:07.959Z,952.57
2017-02-06T11:42:07.467Z,952.54
2017-02-06T11:43:08.251Z,952.56
2017-02-06T11:44:07.814Z,952.54
2017-02-06T11:45:07.293Z,952.52
2017-02-06T11:46:08.206Z,952.55
2017-02-06T11:47:07.787Z,952.58
2017-02-06T11:48:07.329Z,952.57
2017-02-06T11:49:07.951Z,952.64
2017-02-06T11:50:07.529Z,952.61
2017-02-06T11:51:08.081Z,952.59
2017-02-06T11:52:07.666Z,952.62
2017-02-06T11:53:08.378Z,952.63
2017-02-06T11:54:07.856Z,952.61
2017-02-06T11:55:07.447Z,952.66
2017-02-06T11:56:08.018Z,952.69
2017-02-06T11:57:07.650Z,952.68
2017-02-06T11:58:09.096Z,952.68
2017-02-06T11:59:07.610Z,952.76
2017-02-06T12:00:07.686Z,952.70
2017-02-06T12:01:08.818Z,952.85
2017-02-06T12:02:07.435Z,952.75
2017-02-06T12:03:07.919Z,952.78
2017-02-06T12:04:07.409Z,952.81
2017-02-06T12:05:07.959Z,952.77
2017-02-06T12:06:07.592Z,952.78
2017-02-06T12:07:08.180Z,952.81
2017-02-06T12:08:07.764Z,952.80
2017-02-06T12:09:07.362Z,952.76
2017-02-06T12:10:08.142Z,952.79
2017-02-06T12:11:07.661Z,952.79
2017-02-06T12:12:08.272Z,952.81
2017-02-06T12:13:07.301Z,952.85
2017-02-06T12:14:07.955Z,952.82
2017-02-06T12:15:07.501Z,952.86
2017-02-06T12:16:08.312Z,952.86
2017-02-06T12:17:08.017Z,952.86
2017-02-06T12:18:07.703Z,952.89
2017-02-06T12:19:08.411Z,952.92
2017-02-06T12:20:08.094Z,952.88
2017-02-06T12:21:07.636Z,952.87
2017-02-06T12:22:08.401Z,952.83
2017-02-06T12:23:08.148Z,952.87
2017-02-06T12:24:07.702Z,952.89
2017-02-06T12:25:08.200Z,952.94
2017-02-06T12:26:07.795Z,952.93
2017-02-06T12:27:07.462Z,952.96
2017-02-06T12:28:08.040Z,952.98